createdAt,value
2023-05-25T00:00:00.532Z,1.1
2023-05-25T00:01:03.111Z,1.1
2023-05-25T00:02:00.544Z,1.1
2023-05-25T00:03:00.692Z,1.1
2023-05-25T00:04:00.760Z,1.1
2023-05-25T00:05:00.525Z,1.1
2023-05-25T00:06:00.540Z,1.1
2023-05-25T00:07:00.520Z,1.1
2023-05-25T00:08:00.516Z,1.1
2023-05-25T00:09:00.525Z,1.1
2023-05-25T00:10:00.517Z,1.1
2023-05-25T00:11:00.553Z,1.1
2023-05-25T00:12:00.520Z,1.1
2023-05-25T00:13:00.538Z,1.1
2023-05-25T00:14:00.534Z,1.1
2023-05-25T00:15:00.546Z,1.1
2023-05-25T00:16:00.531Z,1.1
2023-05-25T00:17:00.571Z,1.1
2023-05-25T00:18:00.569Z,1.1
2023-05-25T00:19:00.531Z,1.1
2023-05-25T00:20:00.605Z,1.1
2023-05-25T00:21:00.517Z,1.1
2023-05-25T00:22:00.525Z,1.1
2023-05-25T00:23:00.527Z,1.1
2023-05-25T00:24:00.535Z,1.1
2023-05-25T00:25:00.565Z,1.1
2023-05-25T00:26:00.530Z,1.1
2023-05-25T00:27:00.530Z,1.1
2023-05-25T00:28:00.530Z,1.1
2023-05-25T00:29:00.559Z,1.1
2023-05-25T00:30:00.557Z,1.1
2023-05-25T00:31:00.578Z,1.1
2023-05-25T00:32:00.539Z,1.1
2023-05-25T00:33:00.597Z,1.1
2023-05-25T00:34:00.534Z,1.1
2023-05-25T00:35:00.540Z,1.1
2023-05-25T00:36:00.584Z,1.1
2023-05-25T00:37:00.544Z,1.1
2023-05-25T00:38:00.556Z,1.1
2023-05-25T00:39:00.543Z,1.1
2023-05-25T00:40:00.579Z,1.1
2023-05-25T00:41:00.575Z,1.1
2023-05-25T00:42:00.569Z,1.1
2023-05-25T00:43:00.548Z,1.1
2023-05-25T00:44:00.567Z,1.1
2023-05-25T00:45:00.559Z,1.1
2023-05-25T00:46:00.609Z,1.1
2023-05-25T00:47:00.579Z,1.1
2023-05-25T00:48:00.573Z,1.1
2023-05-25T00:49:00.563Z,1.1
2023-05-25T00:50:00.577Z,1.1
2023-05-25T00:51:00.574Z,1.1
2023-05-25T00:52:00.564Z,1.1
2023-05-25T00:53:00.584Z,1.1
2023-05-25T00:54:00.574Z,1.1
2023-05-25T00:55:00.561Z,1.1
2023-05-25T00:56:00.588Z,1.1
2023-05-25T00:57:00.564Z,1.1
2023-05-25T00:58:00.562Z,1.1
2023-05-25T00:59:00.585Z,1.1
2023-05-25T01:00:00.584Z,1.1
2023-05-25T01:01:00.587Z,1.1
2023-05-25T01:02:00.592Z,1.1
2023-05-25T01:03:00.632Z,1.1
2023-05-25T01:04:00.725Z,1.1
2023-05-25T01:05:00.595Z,1.1
2023-05-25T01:06:00.602Z,1.1
2023-05-25T01:07:00.597Z,1.1
2023-05-25T01:08:00.590Z,1.1
2023-05-25T01:09:00.639Z,1.1
2023-05-25T01:10:00.665Z,1.1
2023-05-25T01:11:00.592Z,1.1
2023-05-25T01:12:00.601Z,1.1
2023-05-25T01:13:00.648Z,1.1
2023-05-25T01:14:00.593Z,1.1
2023-05-25T01:15:00.615Z,1.1
2023-05-25T01:16:00.621Z,1.1
2023-05-25T01:17:00.604Z,1.1
2023-05-25T01:18:00.686Z,1.1
2023-05-25T01:19:00.594Z,1.1
2023-05-25T01:20:10.557Z,1.1
2023-05-25T01:21:00.657Z,1.1
2023-05-25T01:22:00.597Z,1.1
2023-05-25T01:23:00.626Z,1.1
2023-05-25T01:24:00.596Z,1.1
2023-05-25T01:25:00.593Z,1.1
2023-05-25T01:26:00.598Z,1.1
2023-05-25T01:27:00.592Z,1.1
2023-05-25T01:28:00.632Z,1.1
2023-05-25T01:29:00.608Z,1.1
2023-05-25T01:30:00.598Z,1.1
2023-05-25T01:31:00.598Z,1.1
2023-05-25T01:32:00.670Z,1.1
2023-05-25T01:33:00.652Z,1.1
2023-05-25T01:34:00.610Z,1.1
2023-05-25T01:35:00.605Z,1.1
2023-05-25T01:36:00.605Z,1.1
2023-05-25T01:37:00.613Z,1.1
2023-05-25T01:38:00.630Z,1.1
2023-05-25T01:39:00.586Z,1.1
2023-05-25T01:40:00.620Z,1.1
2023-05-25T01:41:00.554Z,1.1
2023-05-25T01:42:00.510Z,1.1
2023-05-25T01:43:00.489Z,1.1
2023-05-25T01:44:00.462Z,1.1
2023-05-25T01:45:00.446Z,1.1
2023-05-25T01:46:00.414Z,1.1
2023-05-25T01:47:00.357Z,1.1
2023-05-25T01:48:00.370Z,1.1
2023-05-25T01:49:00.304Z,1.1
2023-05-25T01:50:00.349Z,1.1
2023-05-25T01:51:00.238Z,1.1
2023-05-25T01:52:00.293Z,1.1
2023-05-25T01:53:00.236Z,1.1
2023-05-25T01:54:00.237Z,1.1
2023-05-25T01:55:00.244Z,1.1
2023-05-25T01:56:00.241Z,1.1
2023-05-25T01:57:00.253Z,1.1
2023-05-25T01:58:00.247Z,1.1
2023-05-25T01:59:00.251Z,1.1
2023-05-25T02:00:01.338Z,1.1
2023-05-25T02:01:01.358Z,1.1
2023-05-25T02:02:01.386Z,1.1
2023-05-25T02:03:01.476Z,1.1
2023-05-25T02:04:01.373Z,1.1
2023-05-25T02:05:01.337Z,1.1
2023-05-25T02:06:01.329Z,1.1
2023-05-25T02:07:01.337Z,1.1
2023-05-25T02:08:01.354Z,1.1
2023-05-25T02:09:01.385Z,1.1
2023-05-25T02:10:01.366Z,1.1
2023-05-25T02:11:01.338Z,1.1
2023-05-25T02:12:01.342Z,1.1
2023-05-25T02:13:01.368Z,1.1
2023-05-25T02:14:01.383Z,1.1
2023-05-25T02:15:01.358Z,1.1
2023-05-25T02:16:01.362Z,1.1
2023-05-25T02:17:01.358Z,1.1
2023-05-25T02:18:01.472Z,1.1
2023-05-25T02:19:01.422Z,1.1
2023-05-25T02:20:01.421Z,1.1
2023-05-25T02:21:01.355Z,1.1
2023-05-25T02:22:01.374Z,1.1
2023-05-25T02:23:01.369Z,1.1
2023-05-25T02:24:01.363Z,1.1
2023-05-25T02:25:01.368Z,1.1
2023-05-25T02:26:01.380Z,1.1
2023-05-25T02:27:01.372Z,1.1
2023-05-25T02:28:01.368Z,1.1
2023-05-25T02:29:01.382Z,1.1
2023-05-25T02:30:01.402Z,1.1
2023-05-25T02:31:01.424Z,1.1
2023-05-25T02:32:01.384Z,1.1
2023-05-25T02:33:01.437Z,1.1
2023-05-25T02:34:01.377Z,1.1
2023-05-25T02:35:01.428Z,1.1
2023-05-25T02:36:01.372Z,1.1
2023-05-25T02:37:01.381Z,1.1
2023-05-25T02:38:01.377Z,1.1
2023-05-25T02:39:01.377Z,1.1
2023-05-25T02:40:01.402Z,1.1
2023-05-25T02:41:01.399Z,1.1
2023-05-25T02:42:01.394Z,1.1
2023-05-25T02:43:01.374Z,1.1
2023-05-25T02:44:01.376Z,1.1
2023-05-25T02:45:01.381Z,1.1
2023-05-25T02:46:01.381Z,1.1
2023-05-25T02:47:01.414Z,1.1
2023-05-25T02:48:01.421Z,1.1
2023-05-25T02:49:01.391Z,1.1
2023-05-25T02:50:01.445Z,1.1
2023-05-25T02:51:01.387Z,1.1
2023-05-25T02:52:01.401Z,1.1
2023-05-25T02:53:01.392Z,1.1
2023-05-25T02:54:01.386Z,1.1
2023-05-25T02:55:01.385Z,1.1
2023-05-25T02:56:01.391Z,1.1
2023-05-25T02:57:01.392Z,1.1
2023-05-25T02:58:01.390Z,1.1
2023-05-25T02:59:01.396Z,1.1
2023-05-25T03:00:01.469Z,1.1
2023-05-25T03:01:01.425Z,1.1
2023-05-25T03:02:01.401Z,1.1
2023-05-25T03:03:01.466Z,1.1
2023-05-25T03:04:01.551Z,1.1
2023-05-25T03:05:04.036Z,1.1
2023-05-25T03:06:01.391Z,1.1
2023-05-25T03:07:01.407Z,1.1
2023-05-25T03:08:01.419Z,1.2
2023-05-25T03:09:01.419Z,1.4
2023-05-25T03:10:01.443Z,1.7
2023-05-25T03:11:01.404Z,2
2023-05-25T03:12:01.427Z,2.3
2023-05-25T03:13:01.419Z,2.7
2023-05-25T03:14:01.405Z,3.2
2023-05-25T03:15:01.412Z,3.7
2023-05-25T03:16:01.409Z,4.3
2023-05-25T03:17:01.433Z,5
2023-05-25T03:18:01.637Z,5.9
2023-05-25T03:19:01.414Z,7
2023-05-25T03:20:01.492Z,8.2
2023-05-25T03:21:01.437Z,9.6
2023-05-25T03:22:01.434Z,11.1
2023-05-25T03:23:01.424Z,12.6
2023-05-25T03:24:01.451Z,14.6
2023-05-25T03:25:01.442Z,16.4
2023-05-25T03:26:01.418Z,18.5
2023-05-25T03:27:01.430Z,20.9
2023-05-25T03:28:01.439Z,23.8
2023-05-25T03:29:01.437Z,26.8
2023-05-25T03:30:01.483Z,30.2
2023-05-25T03:31:01.432Z,34.5
2023-05-25T03:32:01.468Z,38.8
2023-05-25T03:33:01.489Z,43.3
2023-05-25T03:34:01.448Z,48.2
2023-05-25T03:35:01.427Z,54.3
2023-05-25T03:36:01.433Z,59
2023-05-25T03:37:01.441Z,64.9
2023-05-25T03:38:01.434Z,70.6
2023-05-25T03:39:01.455Z,77.7
2023-05-25T03:40:01.488Z,85.5
2023-05-25T03:41:01.480Z,94.1
2023-05-25T03:42:01.507Z,104.8
2023-05-25T03:43:01.456Z,116.7
2023-05-25T03:44:01.461Z,130
2023-05-25T03:45:01.459Z,144.7
2023-05-25T03:46:01.474Z,153.6
2023-05-25T03:47:01.502Z,165.1
2023-05-25T03:48:01.501Z,171.1
2023-05-25T03:49:01.450Z,177.3
2023-05-25T03:50:01.461Z,183.8
2023-05-25T03:51:01.454Z,188.3
2023-05-25T03:52:01.476Z,197.5
2023-05-25T03:53:01.456Z,207.2
2023-05-25T03:54:01.456Z,212.2
2023-05-25T03:55:01.461Z,217.3
2023-05-25T03:56:01.471Z,222.6
2023-05-25T03:57:01.502Z,225.3
2023-05-25T03:58:01.463Z,230.7
2023-05-25T03:59:01.454Z,239.2
2023-05-25T04:00:01.524Z,244.9
2023-05-25T04:01:03.017Z,253.9
2023-05-25T04:02:01.467Z,263.2
2023-05-25T04:03:01.530Z,269.5
2023-05-25T04:04:01.574Z,276.1
2023-05-25T04:05:01.497Z,286.1
2023-05-25T04:06:01.474Z,296.6
2023-05-25T04:07:01.474Z,303.8
2023-05-25T04:08:01.472Z,311.1
2023-05-25T04:09:01.470Z,322.5
2023-05-25T04:10:01.466Z,330.3
2023-05-25T04:11:01.472Z,338.3
2023-05-25T04:12:01.466Z,346.5
2023-05-25T04:13:01.478Z,354.9
2023-05-25T04:14:01.468Z,363.5
2023-05-25T04:15:01.478Z,367.8
2023-05-25T04:16:01.483Z,381.3
2023-05-25T04:17:01.474Z,390.5
2023-05-25T04:18:01.596Z,399.9
2023-05-25T04:19:01.480Z,404.8
2023-05-25T04:20:01.565Z,414.5
2023-05-25T04:21:01.473Z,424.6
2023-05-25T04:22:01.505Z,429.7
2023-05-25T04:23:01.475Z,440.1
2023-05-25T04:24:01.474Z,450.8
2023-05-25T04:25:01.534Z,461.7
2023-05-25T04:26:01.483Z,467.2
2023-05-25T04:27:01.482Z,478.5
2023-05-25T04:28:01.488Z,484.3
2023-05-25T04:29:01.480Z,490.1
2023-05-25T04:30:01.486Z,490.1
2023-05-25T04:31:01.496Z,502
2023-05-25T04:32:01.571Z,502
2023-05-25T04:33:01.516Z,508
2023-05-25T04:34:01.513Z,514.1
2023-05-25T04:35:01.573Z,514.1
2023-05-25T04:36:01.487Z,526.6
2023-05-25T04:37:01.497Z,532.9
2023-05-25T04:38:01.493Z,532.9
2023-05-25T04:39:01.506Z,539.3
2023-05-25T04:40:01.544Z,545.8
2023-05-25T04:41:01.519Z,559
2023-05-25T04:42:01.493Z,565.7
2023-05-25T04:43:01.499Z,565.7
2023-05-25T04:44:06.952Z,579.4
2023-05-25T04:45:01.528Z,579.4
2023-05-25T04:46:01.559Z,586.4
2023-05-25T04:47:01.558Z,593.4
2023-05-25T04:48:01.681Z,600.6
2023-05-25T04:49:01.508Z,607.8
2023-05-25T04:50:01.554Z,615.1
2023-05-25T04:51:01.500Z,622.5
2023-05-25T04:52:01.499Z,622.5
2023-05-25T04:53:01.503Z,622.5
2023-05-25T04:54:01.519Z,630
2023-05-25T04:55:01.519Z,630
2023-05-25T04:56:01.510Z,637.6
2023-05-25T04:57:01.508Z,645.3
2023-05-25T04:58:01.510Z,653
2023-05-25T04:59:01.516Z,653
2023-05-25T05:00:01.532Z,660.9
2023-05-25T05:01:01.548Z,660.9
2023-05-25T05:02:01.515Z,668.8
2023-05-25T05:03:01.624Z,685.1
2023-05-25T05:04:01.610Z,685.1
2023-05-25T05:05:01.545Z,693.3
2023-05-25T05:06:01.543Z,693.3
2023-05-25T05:07:01.515Z,710.1
2023-05-25T05:08:01.532Z,710.1
2023-05-25T05:09:01.550Z,718.6
2023-05-25T05:10:01.531Z,718.6
2023-05-25T05:11:01.516Z,736
2023-05-25T05:12:01.534Z,736
2023-05-25T05:13:01.527Z,744.8
2023-05-25T05:14:01.527Z,753.8
2023-05-25T05:15:01.523Z,753.8
2023-05-25T05:16:01.607Z,762.9
2023-05-25T05:17:01.665Z,772.1
2023-05-25T05:18:01.602Z,781.4
2023-05-25T05:19:01.570Z,790.8
2023-05-25T05:20:01.599Z,790.8
2023-05-25T05:21:01.549Z,800.3
2023-05-25T05:22:01.549Z,809.9
2023-05-25T05:23:01.571Z,819.6
2023-05-25T05:24:01.535Z,829.5
2023-05-25T05:25:01.547Z,839.5
2023-05-25T05:26:01.538Z,849.6
2023-05-25T05:27:03.279Z,859.8
2023-05-25T05:28:01.541Z,870.2
2023-05-25T05:29:01.563Z,870.2
2023-05-25T05:30:01.586Z,880.6
2023-05-25T05:31:01.612Z,891.2
2023-05-25T05:32:01.551Z,901.9
2023-05-25T05:33:01.609Z,912.8
2023-05-25T05:34:01.625Z,923.7
2023-05-25T05:35:01.538Z,934.9
2023-05-25T05:36:01.548Z,946.1
2023-05-25T05:37:01.558Z,957.5
2023-05-25T05:38:01.579Z,957.5
2023-05-25T05:39:01.566Z,969
2023-05-25T05:40:01.557Z,980.7
2023-05-25T05:41:01.558Z,992.5
2023-05-25T05:42:01.566Z,1004.4
2023-05-25T05:43:01.563Z,1016.5
2023-05-25T05:44:01.569Z,1028.7
2023-05-25T05:45:01.589Z,1028.7
2023-05-25T05:46:01.681Z,1053.6
2023-05-25T05:47:01.965Z,1053.6
2023-05-25T05:48:01.625Z,1053.6
2023-05-25T05:49:01.565Z,1066.3
2023-05-25T05:50:01.587Z,1092.1
2023-05-25T05:51:01.568Z,1092.1
2023-05-25T05:52:01.570Z,1105.3
2023-05-25T05:53:01.583Z,1118.6
2023-05-25T05:54:01.573Z,1132
2023-05-25T05:55:01.589Z,1145.6
2023-05-25T05:56:01.597Z,1145.6
2023-05-25T05:57:01.618Z,1159.4
2023-05-25T05:58:01.589Z,1159.4
2023-05-25T05:59:01.572Z,1187.5
2023-05-25T06:00:01.602Z,1187.5
2023-05-25T06:01:01.612Z,1201.7
2023-05-25T06:02:01.623Z,1201.7
2023-05-25T06:03:01.780Z,1216.2
2023-05-25T06:04:01.572Z,1230.8
2023-05-25T06:05:01.603Z,1245.7
2023-05-25T06:06:01.746Z,1245.7
2023-05-25T06:07:01.591Z,1260.7
2023-05-25T06:08:01.576Z,1260.7
2023-05-25T06:09:01.582Z,1275.8
2023-05-25T06:10:01.627Z,1291.2
2023-05-25T06:11:01.603Z,1291.2
2023-05-25T06:12:01.591Z,1306.7
2023-05-25T06:13:01.582Z,1306.7
2023-05-25T06:14:01.589Z,1322.4
2023-05-25T06:15:01.591Z,1338.3
2023-05-25T06:16:01.655Z,1338.3
2023-05-25T06:17:01.942Z,1338.3
2023-05-25T06:18:01.658Z,1370.7
2023-05-25T06:19:01.693Z,1370.7
2023-05-25T06:20:01.656Z,1370.7
2023-05-25T06:21:01.604Z,1370.7
2023-05-25T06:22:01.614Z,1403.9
2023-05-25T06:23:01.621Z,1403.9
2023-05-25T06:24:01.601Z,1403.9
2023-05-25T06:25:01.624Z,1420.8
2023-05-25T06:26:01.598Z,1437.9
2023-05-25T06:27:01.601Z,1437.9
2023-05-25T06:28:01.632Z,1490.4
2023-05-25T06:29:01.640Z,1582.3
2023-05-25T06:30:01.613Z,1640
2023-05-25T06:31:01.624Z,1544.8
2023-05-25T06:32:01.668Z,1582.3
2023-05-25T06:33:01.734Z,1620.5
2023-05-25T06:34:01.631Z,1582.3
2023-05-25T06:35:01.652Z,1601.3
2023-05-25T06:36:01.634Z,1620.5
2023-05-25T06:37:01.619Z,1699.9
2023-05-25T06:38:01.629Z,1783.3
2023-05-25T06:39:01.643Z,1699.9
2023-05-25T06:40:01.625Z,1848.4
2023-05-25T06:41:01.647Z,2058.4
2023-05-25T06:42:01.659Z,1962.2
2023-05-25T06:43:01.633Z,1783.3
2023-05-25T06:44:01.654Z,1699.9
2023-05-25T06:45:01.624Z,1762
2023-05-25T06:46:01.654Z,1741
2023-05-25T06:47:01.657Z,1762
2023-05-25T06:48:01.788Z,1783.3
2023-05-25T06:49:01.649Z,1985.8
2023-05-25T06:50:01.662Z,2211.5
2023-05-25T06:51:01.649Z,2083.2
2023-05-25T06:52:01.667Z,2009.8
2023-05-25T06:53:01.636Z,2009.8
2023-05-25T06:54:01.648Z,1544.8
2023-05-25T06:55:01.635Z,2034
2023-05-25T06:56:01.636Z,3018
2023-05-25T06:57:01.650Z,4021.3
2023-05-25T06:58:01.631Z,3401.4
2023-05-25T06:59:01.662Z,2911.7
2023-05-25T07:00:01.659Z,3483.7
2023-05-25T07:01:01.864Z,3128.2
2023-05-25T07:02:01.661Z,3242.6
2023-05-25T07:03:01.681Z,3242.6
2023-05-25T07:04:01.659Z,3128.2
2023-05-25T07:05:01.737Z,2492.4
2023-05-25T07:06:01.676Z,2710.1
2023-05-25T07:07:01.681Z,2492.4
2023-05-25T07:08:01.692Z,2742.6
2023-05-25T07:09:01.674Z,3483.7
2023-05-25T07:10:01.667Z,3204.1
2023-05-25T07:11:01.655Z,3128.2
2023-05-25T07:12:01.650Z,3321.1
2023-05-25T07:13:01.652Z,3568
2023-05-25T07:14:01.653Z,3568
2023-05-25T07:15:01.650Z,3128.2
2023-05-25T07:16:01.714Z,3091.1
2023-05-25T07:17:01.658Z,3242.6
2023-05-25T07:18:01.729Z,3926.3
2023-05-25T07:19:01.667Z,3401.4
2023-05-25T07:20:01.774Z,3281.6
2023-05-25T07:21:01.668Z,3054.3
2023-05-25T07:22:01.660Z,3018
2023-05-25T07:23:01.682Z,3973.5
2023-05-25T07:24:01.695Z,3926.3
2023-05-25T07:25:01.677Z,3401.4
2023-05-25T07:26:04.262Z,3091.1
2023-05-25T07:27:01.664Z,3698.5
2023-05-25T07:28:01.674Z,3973.5
2023-05-25T07:29:01.726Z,4069.8
2023-05-25T07:30:01.708Z,4218.4
2023-05-25T07:31:01.765Z,4118.8
2023-05-25T07:32:01.675Z,3442.3
2023-05-25T07:33:01.755Z,3568
2023-05-25T07:34:01.679Z,3401.4
2023-05-25T07:35:01.683Z,3483.7
2023-05-25T07:36:01.770Z,3926.3
2023-05-25T07:37:01.731Z,3788
2023-05-25T07:38:01.689Z,3698.5
2023-05-25T07:39:01.680Z,4320.5
2023-05-25T07:40:01.718Z,3926.3
2023-05-25T07:41:00.309Z,3321.1
2023-05-25T07:42:00.300Z,3442.3
2023-05-25T07:43:00.314Z,3165.8
2023-05-25T07:44:00.302Z,3401.4
2023-05-25T07:45:00.311Z,3568
2023-05-25T07:46:00.324Z,3204.1
2023-05-25T07:47:00.345Z,3018
2023-05-25T07:48:00.361Z,3401.4
2023-05-25T07:49:00.350Z,3788
2023-05-25T07:50:00.403Z,3698.5
2023-05-25T07:51:00.310Z,3879.6
2023-05-25T07:52:00.332Z,3973.5
2023-05-25T07:53:00.316Z,3742.9
2023-05-25T07:54:00.328Z,3973.5
2023-05-25T07:55:00.369Z,4320.5
2023-05-25T07:56:00.336Z,4320.5
2023-05-25T07:57:00.324Z,4269.1
2023-05-25T07:58:00.325Z,4425
2023-05-25T07:59:00.317Z,4372.4
2023-05-25T08:00:00.345Z,3973.5
2023-05-25T08:01:00.322Z,3568
2023-05-25T08:02:00.383Z,3401.4
2023-05-25T08:03:00.512Z,3698.5
2023-05-25T08:04:00.671Z,3611.1
2023-05-25T08:05:00.411Z,4320.5
2023-05-25T08:06:00.337Z,4811.5
2023-05-25T08:07:00.335Z,4754.3
2023-05-25T08:08:00.328Z,4811.5
2023-05-25T08:09:00.327Z,3926.3
2023-05-25T08:10:00.391Z,4478.2
2023-05-25T08:11:00.346Z,4069.8
2023-05-25T08:12:15.028Z,3926.3
2023-05-25T08:13:00.333Z,4320.5
2023-05-25T08:14:00.645Z,3654.5
2023-05-25T08:15:00.351Z,4218.4
2023-05-25T08:16:00.347Z,4168.3
2023-05-25T08:17:00.367Z,4372.4
2023-05-25T08:18:00.365Z,4478.2
2023-05-25T08:19:00.363Z,3973.5
2023-05-25T08:20:00.443Z,4218.4
2023-05-25T08:21:00.340Z,4021.3
2023-05-25T08:22:00.338Z,3568
2023-05-25T08:23:00.336Z,4218.4
2023-05-25T08:24:00.342Z,4642
2023-05-25T08:25:00.341Z,4218.4
2023-05-25T08:26:01.344Z,4118.8
2023-05-25T08:27:00.356Z,3525.6
2023-05-25T08:28:00.348Z,4697.8
2023-05-25T08:29:00.350Z,4118.8
2023-05-25T08:30:00.390Z,4118.8
2023-05-25T08:31:00.387Z,4927.9
2023-05-25T08:32:00.342Z,4754.3
2023-05-25T08:33:00.366Z,4927.9
2023-05-25T08:34:00.385Z,4869.3
2023-05-25T08:35:00.383Z,5231.6
2023-05-25T08:36:00.360Z,4754.3
2023-05-25T08:37:00.424Z,4754.3
2023-05-25T08:38:00.372Z,4372.4
2023-05-25T08:39:00.368Z,4754.3
2023-05-25T08:40:01.750Z,4811.5
2023-05-25T08:41:00.374Z,4532.1
2023-05-25T08:42:00.368Z,5107.8
2023-05-25T08:43:00.369Z,4642
2023-05-25T08:44:00.370Z,4811.5
2023-05-25T08:45:00.381Z,4586.8
2023-05-25T08:46:00.384Z,4532.1
2023-05-25T08:47:00.370Z,4320.5
2023-05-25T08:48:00.433Z,4478.2
2023-05-25T08:49:00.465Z,4532.1
2023-05-25T08:50:00.398Z,4218.4
2023-05-25T08:51:00.386Z,3833.5
2023-05-25T08:52:00.418Z,4697.8
2023-05-25T08:53:00.384Z,4425
2023-05-25T08:54:00.373Z,3973.5
2023-05-25T08:55:00.380Z,4069.8
2023-05-25T08:56:00.390Z,4586.8
2023-05-25T08:57:00.390Z,3483.7
2023-05-25T08:58:00.386Z,3833.5
2023-05-25T08:59:00.394Z,3401.4
2023-05-25T09:00:00.409Z,3281.6
2023-05-25T09:01:00.394Z,4425
2023-05-25T09:02:00.432Z,4269.1
2023-05-25T09:03:00.587Z,4754.3
2023-05-25T09:04:00.429Z,4642
2023-05-25T09:05:00.395Z,5620.7
2023-05-25T09:06:00.386Z,4218.4
2023-05-25T09:07:09.424Z,4478.2
2023-05-25T09:08:00.386Z,4372.4
2023-05-25T09:09:00.431Z,4168.3
2023-05-25T09:10:00.454Z,4987.1
2023-05-25T09:11:00.400Z,5107.8
2023-05-25T09:12:00.408Z,5688.3
2023-05-25T09:13:12.770Z,5756.7
2023-05-25T09:14:00.415Z,5047.1
2023-05-25T09:15:00.406Z,5107.8
2023-05-25T09:16:00.488Z,4927.9
2023-05-25T09:17:00.501Z,4372.4
2023-05-25T09:18:00.449Z,4532.1
2023-05-25T09:19:00.400Z,5231.6
2023-05-25T09:20:00.482Z,4927.9
2023-05-25T09:21:00.553Z,5487.9
2023-05-25T09:22:10.658Z,5294.6
2023-05-25T09:23:00.409Z,5620.7
2023-05-25T09:24:00.439Z,5688.3
2023-05-25T09:25:00.427Z,5422.7
2023-05-25T09:26:00.417Z,5358.2
2023-05-25T09:27:00.424Z,6185
2023-05-25T09:28:10.114Z,6185
2023-05-25T09:29:00.436Z,5967.1
2023-05-25T09:30:00.452Z,4869.3
2023-05-25T09:31:00.418Z,5620.7
2023-05-25T09:32:00.487Z,5896.2
2023-05-25T09:33:00.440Z,5553.9
2023-05-25T09:34:00.602Z,5358.2
2023-05-25T09:35:00.423Z,5620.7
2023-05-25T09:36:00.424Z,5553.9
2023-05-25T09:37:00.651Z,5294.6
2023-05-25T09:38:00.677Z,4869.3
2023-05-25T09:39:00.611Z,5231.6
2023-05-25T09:40:00.454Z,6185
2023-05-25T09:41:00.429Z,6259.4
2023-05-25T09:42:00.433Z,5967.1
2023-05-25T09:43:00.439Z,5826.2
2023-05-25T09:44:10.271Z,5756.7
2023-05-25T09:45:00.521Z,5422.7
2023-05-25T09:46:00.478Z,5756.7
2023-05-25T09:47:00.444Z,6487.9
2023-05-25T09:48:00.469Z,5967.1
2023-05-25T09:49:00.457Z,6038.9
2023-05-25T09:50:00.460Z,5487.9
2023-05-25T09:51:00.448Z,5620.7
2023-05-25T09:52:00.463Z,5620.7
2023-05-25T09:53:00.445Z,5620.7
2023-05-25T09:54:00.466Z,5487.9
2023-05-25T09:55:00.445Z,5756.7
2023-05-25T09:56:01.776Z,5688.3
2023-05-25T09:57:00.460Z,5169.5
2023-05-25T09:58:00.486Z,6038.9
2023-05-25T09:59:00.460Z,6410.8
2023-05-25T10:00:00.487Z,5826.2
2023-05-25T10:01:00.466Z,5358.2
2023-05-25T10:02:00.544Z,6038.9
2023-05-25T10:03:00.515Z,5756.7
2023-05-25T10:04:04.832Z,5826.2
2023-05-25T10:05:00.504Z,6259.4
2023-05-25T10:06:00.461Z,5422.7
2023-05-25T10:07:00.461Z,5422.7
2023-05-25T10:08:00.464Z,5620.7
2023-05-25T10:09:00.451Z,6185
2023-05-25T10:10:00.468Z,7579.5
2023-05-25T10:11:00.484Z,6887.9
2023-05-25T10:12:00.455Z,5756.7
2023-05-25T10:13:00.482Z,6487.9
2023-05-25T10:14:00.457Z,6645.2
2023-05-25T10:15:00.464Z,5756.7
2023-05-25T10:16:00.489Z,5756.7
2023-05-25T10:17:00.472Z,6487.9
2023-05-25T10:18:00.508Z,6970.7
2023-05-25T10:19:00.462Z,6725.2
2023-05-25T10:20:00.581Z,6645.2
2023-05-25T10:21:00.757Z,6645.2
2023-05-25T10:22:00.503Z,5756.7
2023-05-25T10:23:00.466Z,6410.8
2023-05-25T10:24:00.474Z,6259.4
2023-05-25T10:25:00.472Z,5967.1
2023-05-25T10:26:00.510Z,6259.4
2023-05-25T10:27:03.215Z,6970.7
2023-05-25T10:28:00.502Z,6806
2023-05-25T10:29:00.499Z,6185
2023-05-25T10:30:00.497Z,7054.5
2023-05-25T10:31:00.504Z,7312.1
2023-05-25T10:32:00.618Z,7139.4
2023-05-25T10:33:00.562Z,5169.5
2023-05-25T10:34:00.474Z,5896.2
2023-05-25T10:35:00.485Z,6259.4
2023-05-25T10:36:09.233Z,5826.2
2023-05-25T10:37:00.504Z,6038.9
2023-05-25T10:38:00.484Z,5756.7
2023-05-25T10:39:00.482Z,6185
2023-05-25T10:40:00.498Z,6970.7
2023-05-25T10:41:00.489Z,7139.4
2023-05-25T10:42:00.502Z,6487.9
2023-05-25T10:43:00.522Z,6410.8
2023-05-25T10:44:00.514Z,5896.2
2023-05-25T10:45:00.524Z,5967.1
2023-05-25T10:46:00.497Z,6410.8
2023-05-25T10:47:00.516Z,6259.4
2023-05-25T10:48:00.535Z,6259.4
2023-05-25T10:49:00.506Z,7139.4
2023-05-25T10:50:00.791Z,7489.4
2023-05-25T10:51:00.494Z,7670.6
2023-05-25T10:52:00.539Z,7670.6
2023-05-25T10:53:00.518Z,7054.5
2023-05-25T10:54:00.505Z,7139.4
2023-05-25T10:55:00.513Z,7489.4
2023-05-25T10:56:00.541Z,7856.2
2023-05-25T10:57:00.515Z,8046.3
2023-05-25T10:58:00.511Z,7139.4
2023-05-25T10:59:00.530Z,6887.9
2023-05-25T11:00:00.617Z,8241
2023-05-25T11:01:00.714Z,8960.7
2023-05-25T11:02:00.640Z,7139.4
2023-05-25T11:03:00.584Z,9068.4
2023-05-25T11:04:00.537Z,7225.2
2023-05-25T11:05:00.518Z,8241
2023-05-25T11:06:00.513Z,8749
2023-05-25T11:07:00.514Z,9287.8
2023-05-25T11:08:00.516Z,10220.4
2023-05-25T11:09:00.515Z,10220.4
2023-05-25T11:10:00.526Z,8340.5
2023-05-25T11:11:00.519Z,6970.7
2023-05-25T11:12:00.522Z,6185
2023-05-25T11:13:00.522Z,6566.3
2023-05-25T11:14:00.518Z,7312.1
2023-05-25T11:15:00.533Z,7950.7
2023-05-25T11:16:00.511Z,7139.4
2023-05-25T11:17:00.531Z,7225.2
2023-05-25T11:18:00.641Z,6887.9
2023-05-25T11:19:00.521Z,7139.4
2023-05-25T11:20:00.588Z,7670.6
2023-05-25T11:21:00.535Z,7225.2
2023-05-25T11:22:00.525Z,6645.2
2023-05-25T11:23:00.921Z,7400.4
2023-05-25T11:24:00.531Z,7670.6
2023-05-25T11:25:00.545Z,8340.5
2023-05-25T11:26:00.561Z,8241
2023-05-25T11:27:00.518Z,8440.8
2023-05-25T11:28:00.525Z,8143.1
2023-05-25T11:29:00.532Z,9068.4
2023-05-25T11:30:00.677Z,5231.6
2023-05-25T11:31:00.573Z,4586.8
2023-05-25T11:32:00.553Z,5620.7
2023-05-25T11:33:00.580Z,6487.9
2023-05-25T11:34:00.534Z,6185
2023-05-25T11:35:00.541Z,5896.2
2023-05-25T11:36:00.553Z,5487.9
2023-05-25T11:37:00.571Z,5756.7
2023-05-25T11:38:00.560Z,7400.4
2023-05-25T11:39:06.663Z,6111.5
2023-05-25T11:40:00.542Z,6487.9
2023-05-25T11:41:00.546Z,5826.2
2023-05-25T11:42:00.557Z,6410.8
2023-05-25T11:43:00.549Z,6887.9
2023-05-25T11:44:00.555Z,7400.4
2023-05-25T11:45:00.549Z,7312.1
2023-05-25T11:46:00.683Z,6410.8
2023-05-25T11:47:00.583Z,5756.7
2023-05-25T11:48:00.642Z,5896.2
2023-05-25T11:49:00.564Z,5107.8
2023-05-25T11:50:00.582Z,6645.2
2023-05-25T11:51:00.550Z,6487.9
2023-05-25T11:52:00.560Z,6970.7
2023-05-25T11:53:00.552Z,9068.4
2023-05-25T11:54:00.556Z,10220.4
2023-05-25T11:55:00.570Z,8241
2023-05-25T11:56:08.070Z,7950.7
2023-05-25T11:57:00.582Z,7400.4
2023-05-25T11:58:00.589Z,7139.4
2023-05-25T11:59:00.562Z,5896.2
2023-05-25T12:00:00.560Z,4811.5
2023-05-25T12:01:00.582Z,4532.1
2023-05-25T12:02:00.593Z,4269.1
2023-05-25T12:03:00.650Z,5047.1
2023-05-25T12:04:01.012Z,2552.8
2023-05-25T12:05:00.596Z,2433.5
2023-05-25T12:06:00.570Z,4697.8
2023-05-25T12:07:00.572Z,4586.8
2023-05-25T12:08:00.566Z,4532.1
2023-05-25T12:09:00.575Z,4532.1
2023-05-25T12:10:00.586Z,4532.1
2023-05-25T12:11:00.585Z,4532.1
2023-05-25T12:12:00.568Z,4586.8
2023-05-25T12:13:00.577Z,4697.8
2023-05-25T12:14:00.586Z,4869.3
2023-05-25T12:15:00.567Z,4754.3
2023-05-25T12:16:00.598Z,4642
2023-05-25T12:17:00.615Z,4642
2023-05-25T12:18:00.611Z,4586.8
2023-05-25T12:19:00.595Z,4642
2023-05-25T12:20:00.650Z,4754.3
2023-05-25T12:21:00.586Z,4869.3
2023-05-25T12:22:00.586Z,4586.8
2023-05-25T12:23:00.581Z,4642
2023-05-25T12:24:00.584Z,4697.8
2023-05-25T12:25:00.585Z,4697.8
2023-05-25T12:26:00.602Z,4642
2023-05-25T12:27:00.584Z,4642
2023-05-25T12:28:00.582Z,4642
2023-05-25T12:29:00.594Z,4586.8
2023-05-25T12:30:00.597Z,4697.8
2023-05-25T12:31:00.632Z,4697.8
2023-05-25T12:32:00.593Z,4754.3
2023-05-25T12:33:02.299Z,4927.9
2023-05-25T12:34:00.593Z,5231.6
2023-05-25T12:35:00.601Z,4927.9
2023-05-25T12:36:00.607Z,4987.1
2023-05-25T12:37:00.595Z,4869.3
2023-05-25T12:38:00.632Z,4927.9
2023-05-25T12:39:00.619Z,5107.8
2023-05-25T12:40:00.618Z,4927.9
2023-05-25T12:41:00.607Z,4697.8
2023-05-25T12:42:00.615Z,4168.3
2023-05-25T12:43:00.605Z,4927.9
2023-05-25T12:44:00.621Z,4811.5
2023-05-25T12:45:00.610Z,4811.5
2023-05-25T12:46:00.713Z,4869.3
2023-05-25T12:47:00.678Z,4869.3
2023-05-25T12:48:02.312Z,4811.5
2023-05-25T12:49:00.612Z,5231.6
2023-05-25T12:50:00.621Z,4425
2023-05-25T12:51:00.866Z,5047.1
2023-05-25T12:52:00.609Z,5107.8
2023-05-25T12:53:00.615Z,5169.5
2023-05-25T12:54:00.619Z,4987.1
2023-05-25T12:55:00.614Z,4987.1
2023-05-25T12:56:00.624Z,4927.9